sensor_id;sensor_type;location;lat;lon;timestamp;temperature;humidity
17774;DHT22;9011;33.236;-97.118;2023-05-10T00:00:45;27.80;99.90
17774;DHT22;9011;33.236;-97.118;2023-05-10T00:03:14;27.60;99.90
17774;DHT22;9011;33.236;-97.118;2023-05-10T00:05:44;27.60;99.90
17774;DHT22;9011;33.236;-97.118;2023-05-10T00:08:12;27.50;99.90
17774;DHT22;9011;33.236;-97.118;2023-05-10T00:10:40;27.50;99.90
17774;DHT22;9011;33.236;-97.118;2023-05-10T00:13:09;27.30;99.90
17774;DHT22;9011;33.236;-97.118;2023-05-10T00:15:37;27.20;99.90
17774;DHT22;9011;33.236;-97.118;2023-05-10T00:18:05;27.10;99.90
17774;DHT22;9011;33.236;-97.118;2023-05-10T00:20:34;27.20;99.90
17774;DHT22;9011;33.236;-97.118;2023-05-10T00:23:04;27.00;99.90
17774;DHT22;9011;33.236;-97.118;2023-05-10T00:25:32;27.10;99.90
17774;DHT22;9011;33.236;-97.118;2023-05-10T00:28:02;27.00;99.90
17774;DHT22;9011;33.236;-97.118;2023-05-10T00:30:31;26.90;99.90
17774;DHT22;9011;33.236;-97.118;2023-05-10T00:32:59;26.80;99.90
17774;DHT22;9011;33.236;-97.118;2023-05-10T00:35:28;26.70;99.90
17774;DHT22;9011;33.236;-97.118;2023-05-10T00:37:56;26.70;99.90
17774;DHT22;9011;33.236;-97.118;2023-05-10T00:40:26;26.80;99.90
17774;DHT22;9011;33.236;-97.118;2023-05-10T00:42:55;26.80;99.90
17774;DHT22;9011;33.236;-97.118;2023-05-10T00:45:23;26.80;99.90
17774;DHT22;9011;33.236;-97.118;2023-05-10T00:47:52;26.80;99.90
17774;DHT22;9011;33.236;-97.118;2023-05-10T00:50:22;26.70;99.90
17774;DHT22;9011;33.236;-97.118;2023-05-10T00:52:51;26.60;99.90
17774;DHT22;9011;33.236;-97.118;2023-05-10T00:55:20;26.50;99.90
17774;DHT22;9011;33.236;-97.118;2023-05-10T00:57:50;26.40;99.90
17774;DHT22;9011;33.236;-97.118;2023-05-10T01:00:19;26.40;99.90
17774;DHT22;9011;33.236;-97.118;2023-05-10T01:02:48;26.50;99.90
17774;DHT22;9011;33.236;-97.118;2023-05-10T01:05:16;26.40;99.90
17774;DHT22;9011;33.236;-97.118;2023-05-10T01:07:47;26.10;99.90
17774;DHT22;9011;33.236;-97.118;2023-05-10T01:10:16;25.90;99.90
17774;DHT22;9011;33.236;-97.118;2023-05-10T01:12:46;25.90;99.90
17774;DHT22;9011;33.236;-97.118;2023-05-10T01:15:17;25.80;99.90
17774;DHT22;9011;33.236;-97.118;2023-05-10T01:17:46;25.70;99.90
17774;DHT22;9011;33.236;-97.118;2023-05-10T01:20:15;25.70;99.90
17774;DHT22;9011;33.236;-97.118;2023-05-10T01:23:07;25.60;99.90
17774;DHT22;9011;33.236;-97.118;2023-05-10T01:26:01;25.70;99.90
17774;DHT22;9011;33.236;-97.118;2023-05-10T01:29:12;25.80;99.90
17774;DHT22;9011;33.236;-97.118;2023-05-10T01:32:23;25.70;99.90
17774;DHT22;9011;33.236;-97.118;2023-05-10T01:34:57;25.70;99.90
17774;DHT22;9011;33.236;-97.118;2023-05-10T01:37:35;25.60;99.90
17774;DHT22;9011;33.236;-97.118;2023-05-10T01:40:13;25.50;99.90
17774;DHT22;9011;33.236;-97.118;2023-05-10T01:42:48;25.50;99.90
17774;DHT22;9011;33.236;-97.118;2023-05-10T01:45:24;25.50;99.90
17774;DHT22;9011;33.236;-97.118;2023-05-10T01:48:03;25.60;99.90
17774;DHT22;9011;33.236;-97.118;2023-05-10T01:50:35;25.50;99.90
17774;DHT22;9011;33.236;-97.118;2023-05-10T01:53:07;25.50;99.90
17774;DHT22;9011;33.236;-97.118;2023-05-10T01:55:41;25.50;99.90
17774;DHT22;9011;33.236;-97.118;2023-05-10T01:58:13;25.40;99.90
17774;DHT22;9011;33.236;-97.118;2023-05-10T02:00:44;25.40;99.90
17774;DHT22;9011;33.236;-97.118;2023-05-10T02:03:15;25.40;99.90
17774;DHT22;9011;33.236;-97.118;2023-05-10T02:05:44;25.30;99.90
17774;DHT22;9011;33.236;-97.118;2023-05-10T02:08:14;25.40;99.90
17774;DHT22;9011;33.236;-97.118;2023-05-10T02:10:49;25.30;99.90
17774;DHT22;9011;33.236;-97.118;2023-05-10T02:13:18;25.40;99.90
17774;DHT22;9011;33.236;-97.118;2023-05-10T02:15:48;25.40;99.90
17774;DHT22;9011;33.236;-97.118;2023-05-10T02:18:19;25.40;99.90
17774;DHT22;9011;33.236;-97.118;2023-05-10T02:20:49;25.30;99.90
17774;DHT22;9011;33.236;-97.118;2023-05-10T02:23:21;25.20;99.90
17774;DHT22;9011;33.236;-97.118;2023-05-10T02:25:58;25.30;99.90
17774;DHT22;9011;33.236;-97.118;2023-05-10T02:28:58;25.20;99.90
17774;DHT22;9011;33.236;-97.118;2023-05-10T02:32:37;25.30;99.90
17774;DHT22;9011;33.236;-97.118;2023-05-10T02:35:55;25.30;99.90
17774;DHT22;9011;33.236;-97.118;2023-05-10T02:41:40;25.20;99.90
17774;DHT22;9011;33.236;-97.118;2023-05-10T02:44:19;25.20;99.90
17774;DHT22;9011;33.236;-97.118;2023-05-10T02:50:46;25.20;99.90
17774;DHT22;9011;33.236;-97.118;2023-05-10T03:07:48;25.00;99.90
17774;DHT22;9011;33.236;-97.118;2023-05-10T03:18:03;24.80;99.90
17774;DHT22;9011;33.236;-97.118;2023-05-10T03:28:57;24.80;99.90
17774;DHT22;9011;33.236;-97.118;2023-05-10T03:38:50;24.70;99.90
17774;DHT22;9011;33.236;-97.118;2023-05-10T03:41:44;24.60;99.90
17774;DHT22;9011;33.236;-97.118;2023-05-10T03:48:38;24.50;99.90
17774;DHT22;9011;33.236;-97.118;2023-05-10T03:51:25;24.60;99.90
17774;DHT22;9011;33.236;-97.118;2023-05-10T04:01:59;24.50;99.90
17774;DHT22;9011;33.236;-97.118;2023-05-10T04:12:19;24.30;99.90
17774;DHT22;9011;33.236;-97.118;2023-05-10T04:18:50;24.10;99.90
17774;DHT22;9011;33.236;-97.118;2023-05-10T04:22:00;24.10;99.90
17774;DHT22;9011;33.236;-97.118;2023-05-10T04:24:42;24.20;99.90
17774;DHT22;9011;33.236;-97.118;2023-05-10T04:27:10;24.30;99.90
17774;DHT22;9011;33.236;-97.118;2023-05-10T04:29:44;24.30;99.90
17774;DHT22;9011;33.236;-97.118;2023-05-10T04:32:12;24.30;99.90
17774;DHT22;9011;33.236;-97.118;2023-05-10T04:34:48;24.30;99.90
17774;DHT22;9011;33.236;-97.118;2023-05-10T04:37:17;24.20;99.90
17774;DHT22;9011;33.236;-97.118;2023-05-10T04:39:45;24.20;99.90
17774;DHT22;9011;33.236;-97.118;2023-05-10T04:42:22;24.10;99.90
17774;DHT22;9011;33.236;-97.118;2023-05-10T04:45:04;24.00;99.90
17774;DHT22;9011;33.236;-97.118;2023-05-10T04:47:42;24.00;99.90
17774;DHT22;9011;33.236;-97.118;2023-05-10T04:50:13;24.00;99.90
17774;DHT22;9011;33.236;-97.118;2023-05-10T04:52:48;24.00;99.90
17774;DHT22;9011;33.236;-97.118;2023-05-10T04:55:19;24.00;99.90
17774;DHT22;9011;33.236;-97.118;2023-05-10T04:57:56;24.00;99.90
17774;DHT22;9011;33.236;-97.118;2023-05-10T05:00:33;23.90;99.90
17774;DHT22;9011;33.236;-97.118;2023-05-10T05:03:11;23.80;99.90
17774;DHT22;9011;33.236;-97.118;2023-05-10T05:10:01;23.80;99.90
17774;DHT22;9011;33.236;-97.118;2023-05-10T05:20:31;23.70;99.90
17774;DHT22;9011;33.236;-97.118;2023-05-10T05:30:51;23.60;99.90
17774;DHT22;9011;33.236;-97.118;2023-05-10T05:37:22;23.60;99.90
17774;DHT22;9011;33.236;-97.118;2023-05-10T05:40:41;23.60;99.90
17774;DHT22;9011;33.236;-97.118;2023-05-10T05:47:52;23.60;99.90
17774;DHT22;9011;33.236;-97.118;2023-05-10T05:57:40;23.60;99.90
17774;DHT22;9011;33.236;-97.118;2023-05-10T06:00:25;23.50;99.90
17774;DHT22;9011;33.236;-97.118;2023-05-10T06:06:45;23.40;99.90
17774;DHT22;9011;33.236;-97.118;2023-05-10T06:23:52;23.30;99.90
17774;DHT22;9011;33.236;-97.118;2023-05-10T06:27:07;23.50;99.90
17774;DHT22;9011;33.236;-97.118;2023-05-10T06:31:26;23.40;99.90
17774;DHT22;9011;33.236;-97.118;2023-05-10T06:40:46;23.20;99.90
17774;DHT22;9011;33.236;-97.118;2023-05-10T06:43:52;23.20;99.90
17774;DHT22;9011;33.236;-97.118;2023-05-10T06:50:21;23.00;99.90
17774;DHT22;9011;33.236;-97.118;2023-05-10T06:53:49;23.00;99.90
17774;DHT22;9011;33.236;-97.118;2023-05-10T06:56:53;22.80;99.90
17774;DHT22;9011;33.236;-97.118;2023-05-10T07:02:55;22.80;99.90
17774;DHT22;9011;33.236;-97.118;2023-05-10T07:05:56;22.80;99.90
17774;DHT22;9011;33.236;-97.118;2023-05-10T07:08:44;22.90;99.90
17774;DHT22;9011;33.236;-97.118;2023-05-10T07:12:03;22.90;99.90
17774;DHT22;9011;33.236;-97.118;2023-05-10T07:15:47;22.70;99.90
17774;DHT22;9011;33.236;-97.118;2023-05-10T07:21:42;22.60;99.90
17774;DHT22;9011;33.236;-97.118;2023-05-10T07:25:04;22.60;99.90
17774;DHT22;9011;33.236;-97.118;2023-05-10T07:27:47;22.70;99.90
17774;DHT22;9011;33.236;-97.118;2023-05-10T07:37:00;22.60;99.90
17774;DHT22;9011;33.236;-97.118;2023-05-10T07:39:52;22.50;99.90
17774;DHT22;9011;33.236;-97.118;2023-05-10T07:46:14;22.50;99.90
17774;DHT22;9011;33.236;-97.118;2023-05-10T07:52:57;22.40;99.90
17774;DHT22;9011;33.236;-97.118;2023-05-10T07:56:25;22.40;99.90
17774;DHT22;9011;33.236;-97.118;2023-05-10T07:59:29;22.50;99.90
17774;DHT22;9011;33.236;-97.118;2023-05-10T08:09:15;22.40;99.90
17774;DHT22;9011;33.236;-97.118;2023-05-10T08:12:25;22.40;99.90
17774;DHT22;9011;33.236;-97.118;2023-05-10T08:15:36;22.40;99.90
17774;DHT22;9011;33.236;-97.118;2023-05-10T08:18:38;22.40;99.90
17774;DHT22;9011;33.236;-97.118;2023-05-10T08:28:58;22.40;99.90
17774;DHT22;9011;33.236;-97.118;2023-05-10T08:32:19;22.30;99.90
17774;DHT22;9011;33.236;-97.118;2023-05-10T08:38:53;22.30;99.90
17774;DHT22;9011;33.236;-97.118;2023-05-10T08:51:38;22.40;99.90
17774;DHT22;9011;33.236;-97.118;2023-05-10T08:54:43;22.50;99.90
17774;DHT22;9011;33.236;-97.118;2023-05-10T09:01:14;22.40;99.90
17774;DHT22;9011;33.236;-97.118;2023-05-10T09:08:29;22.40;99.90
17774;DHT22;9011;33.236;-97.118;2023-05-10T09:11:17;22.20;99.90
17774;DHT22;9011;33.236;-97.118;2023-05-10T09:14:25;22.20;99.90
17774;DHT22;9011;33.236;-97.118;2023-05-10T09:20:26;22.10;99.90
17774;DHT22;9011;33.236;-97.118;2023-05-10T09:23:03;22.20;99.90
17774;DHT22;9011;33.236;-97.118;2023-05-10T09:26:14;22.20;99.90
17774;DHT22;9011;33.236;-97.118;2023-05-10T09:29:19;22.20;99.90
17774;DHT22;9011;33.236;-97.118;2023-05-10T09:38:45;22.20;99.90
17774;DHT22;9011;33.236;-97.118;2023-05-10T09:45:04;22.20;99.90
17774;DHT22;9011;33.236;-97.118;2023-05-10T09:48:17;22.30;99.90
17774;DHT22;9011;33.236;-97.118;2023-05-10T09:51:24;22.10;99.90
17774;DHT22;9011;33.236;-97.118;2023-05-10T09:58:15;22.10;99.90
17774;DHT22;9011;33.236;-97.118;2023-05-10T10:05:00;22.10;99.90
17774;DHT22;9011;33.236;-97.118;2023-05-10T10:07:56;22.20;99.90
17774;DHT22;9011;33.236;-97.118;2023-05-10T10:10:36;22.20;99.90
17774;DHT22;9011;33.236;-97.118;2023-05-10T10:13:22;22.10;99.90
17774;DHT22;9011;33.236;-97.118;2023-05-10T10:25:17;21.70;99.90
17774;DHT22;9011;33.236;-97.118;2023-05-10T10:28:15;21.70;99.90
17774;DHT22;9011;33.236;-97.118;2023-05-10T10:30:48;21.70;99.90
17774;DHT22;9011;33.236;-97.118;2023-05-10T10:33:55;21.70;99.90
17774;DHT22;9011;33.236;-97.118;2023-05-10T10:36:26;21.80;99.90
17774;DHT22;9011;33.236;-97.118;2023-05-10T10:39:20;21.70;99.90
17774;DHT22;9011;33.236;-97.118;2023-05-10T10:42:11;21.70;99.90
17774;DHT22;9011;33.236;-97.118;2023-05-10T10:44:45;21.80;99.90
17774;DHT22;9011;33.236;-97.118;2023-05-10T10:47:29;21.70;99.90
17774;DHT22;9011;33.236;-97.118;2023-05-10T10:50:05;21.70;99.90
17774;DHT22;9011;33.236;-97.118;2023-05-10T10:52:47;21.70;99.90
17774;DHT22;9011;33.236;-97.118;2023-05-10T10:58:50;21.70;99.90
17774;DHT22;9011;33.236;-97.118;2023-05-10T11:01:22;21.70;99.90
17774;DHT22;9011;33.236;-97.118;2023-05-10T11:04:18;21.70;99.90
17774;DHT22;9011;33.236;-97.118;2023-05-10T11:06:48;21.70;99.90
17774;DHT22;9011;33.236;-97.118;2023-05-10T11:09:25;21.60;99.90
17774;DHT22;9011;33.236;-97.118;2023-05-10T11:12:07;21.50;99.90
17774;DHT22;9011;33.236;-97.118;2023-05-10T11:14:48;21.40;99.90
17774;DHT22;9011;33.236;-97.118;2023-05-10T11:17:38;21.30;99.90
17774;DHT22;9011;33.236;-97.118;2023-05-10T11:20:33;21.20;99.90
17774;DHT22;9011;33.236;-97.118;2023-05-10T11:27:06;21.30;99.90
17774;DHT22;9011;33.236;-97.118;2023-05-10T11:29:34;21.30;99.90
17774;DHT22;9011;33.236;-97.118;2023-05-10T11:32:10;21.40;99.90
17774;DHT22;9011;33.236;-97.118;2023-05-10T11:34:41;21.40;99.90
17774;DHT22;9011;33.236;-97.118;2023-05-10T11:37:09;21.40;99.90
17774;DHT22;9011;33.236;-97.118;2023-05-10T11:39:38;21.40;99.90
17774;DHT22;9011;33.236;-97.118;2023-05-10T11:45:42;21.10;99.90
17774;DHT22;9011;33.236;-97.118;2023-05-10T11:48:25;21.10;99.90
17774;DHT22;9011;33.236;-97.118;2023-05-10T11:50:54;21.00;99.90
17774;DHT22;9011;33.236;-97.118;2023-05-10T11:53:34;20.80;99.90
17774;DHT22;9011;33.236;-97.118;2023-05-10T11:56:19;20.90;99.90
17774;DHT22;9011;33.236;-97.118;2023-05-10T11:58:58;21.00;99.90
17774;DHT22;9011;33.236;-97.118;2023-05-10T12:01:28;21.10;99.90
17774;DHT22;9011;33.236;-97.118;2023-05-10T12:03:58;21.10;99.90
17774;DHT22;9011;33.236;-97.118;2023-05-10T12:06:28;21.00;99.90
17774;DHT22;9011;33.236;-97.118;2023-05-10T12:08:58;21.10;99.90
17774;DHT22;9011;33.236;-97.118;2023-05-10T12:11:27;21.20;99.90
17774;DHT22;9011;33.236;-97.118;2023-05-10T12:13:57;21.30;99.90
17774;DHT22;9011;33.236;-97.118;2023-05-10T12:16:29;21.30;99.90
17774;DHT22;9011;33.236;-97.118;2023-05-10T12:19:00;21.30;99.90
17774;DHT22;9011;33.236;-97.118;2023-05-10T12:21:29;21.30;99.90
17774;DHT22;9011;33.236;-97.118;2023-05-10T12:24:01;21.40;99.90
17774;DHT22;9011;33.236;-97.118;2023-05-10T12:26:30;21.40;99.90
17774;DHT22;9011;33.236;-97.118;2023-05-10T12:29:13;21.40;99.90
17774;DHT22;9011;33.236;-97.118;2023-05-10T12:31:59;21.40;99.90
17774;DHT22;9011;33.236;-97.118;2023-05-10T12:34:31;21.40;99.90
17774;DHT22;9011;33.236;-97.118;2023-05-10T12:37:00;21.50;99.90
17774;DHT22;9011;33.236;-97.118;2023-05-10T12:39:39;21.50;99.90
17774;DHT22;9011;33.236;-97.118;2023-05-10T12:42:08;21.60;99.90
17774;DHT22;9011;33.236;-97.118;2023-05-10T12:44:36;21.60;99.90
17774;DHT22;9011;33.236;-97.118;2023-05-10T12:47:05;21.70;99.90
17774;DHT22;9011;33.236;-97.118;2023-05-10T12:49:35;21.70;99.90
17774;DHT22;9011;33.236;-97.118;2023-05-10T12:52:03;21.70;99.90
17774;DHT22;9011;33.236;-97.118;2023-05-10T12:54:32;21.80;99.90
17774;DHT22;9011;33.236;-97.118;2023-05-10T12:57:00;21.80;99.90
17774;DHT22;9011;33.236;-97.118;2023-05-10T12:59:28;21.80;99.90
17774;DHT22;9011;33.236;-97.118;2023-05-10T13:01:57;21.80;99.90
17774;DHT22;9011;33.236;-97.118;2023-05-10T13:04:26;21.80;99.90
17774;DHT22;9011;33.236;-97.118;2023-05-10T13:06:56;21.80;99.90
17774;DHT22;9011;33.236;-97.118;2023-05-10T13:09:27;21.90;99.90
17774;DHT22;9011;33.236;-97.118;2023-05-10T13:11:56;21.90;99.90
17774;DHT22;9011;33.236;-97.118;2023-05-10T13:14:24;22.00;99.90
17774;DHT22;9011;33.236;-97.118;2023-05-10T13:16:53;22.00;99.90
17774;DHT22;9011;33.236;-97.118;2023-05-10T13:19:21;22.10;99.90
17774;DHT22;9011;33.236;-97.118;2023-05-10T13:21:49;22.10;99.90
17774;DHT22;9011;33.236;-97.118;2023-05-10T13:24:19;22.20;99.90
17774;DHT22;9011;33.236;-97.118;2023-05-10T13:26:48;22.20;99.90
17774;DHT22;9011;33.236;-97.118;2023-05-10T13:29:16;22.30;99.90
17774;DHT22;9011;33.236;-97.118;2023-05-10T13:31:45;22.40;99.90
17774;DHT22;9011;33.236;-97.118;2023-05-10T13:34:13;22.50;99.90
17774;DHT22;9011;33.236;-97.118;2023-05-10T13:36:42;22.70;99.90
17774;DHT22;9011;33.236;-97.118;2023-05-10T13:39:10;22.70;99.90
17774;DHT22;9011;33.236;-97.118;2023-05-10T13:41:40;22.80;99.90
17774;DHT22;9011;33.236;-97.118;2023-05-10T13:44:08;22.90;99.90
17774;DHT22;9011;33.236;-97.118;2023-05-10T13:46:38;23.10;99.90
17774;DHT22;9011;33.236;-97.118;2023-05-10T13:49:06;23.10;99.90
17774;DHT22;9011;33.236;-97.118;2023-05-10T13:51:35;23.20;99.90
17774;DHT22;9011;33.236;-97.118;2023-05-10T13:54:03;23.30;99.90
17774;DHT22;9011;33.236;-97.118;2023-05-10T13:56:31;23.20;99.90
17774;DHT22;9011;33.236;-97.118;2023-05-10T13:59:01;23.30;99.90
17774;DHT22;9011;33.236;-97.118;2023-05-10T14:01:30;23.50;99.90
17774;DHT22;9011;33.236;-97.118;2023-05-10T14:03:58;23.60;99.90
17774;DHT22;9011;33.236;-97.118;2023-05-10T14:06:26;23.80;99.90
17774;DHT22;9011;33.236;-97.118;2023-05-10T14:08:55;23.80;99.90
17774;DHT22;9011;33.236;-97.118;2023-05-10T14:11:23;23.90;99.90
17774;DHT22;9011;33.236;-97.118;2023-05-10T14:13:51;24.00;99.90
17774;DHT22;9011;33.236;-97.118;2023-05-10T14:16:22;24.10;99.90
17774;DHT22;9011;33.236;-97.118;2023-05-10T14:18:50;24.10;99.90
17774;DHT22;9011;33.236;-97.118;2023-05-10T14:21:18;24.10;99.90
17774;DHT22;9011;33.236;-97.118;2023-05-10T14:23:47;24.30;99.90
17774;DHT22;9011;33.236;-97.118;2023-05-10T14:26:15;24.40;99.90
17774;DHT22;9011;33.236;-97.118;2023-05-10T14:28:44;24.20;99.90
17774;DHT22;9011;33.236;-97.118;2023-05-10T14:31:12;24.40;99.90
17774;DHT22;9011;33.236;-97.118;2023-05-10T14:33:42;24.50;99.90
17774;DHT22;9011;33.236;-97.118;2023-05-10T14:36:10;24.50;99.90
17774;DHT22;9011;33.236;-97.118;2023-05-10T14:38:39;24.40;99.90
17774;DHT22;9011;33.236;-97.118;2023-05-10T14:41:08;24.40;99.90
17774;DHT22;9011;33.236;-97.118;2023-05-10T14:43:40;24.60;99.90
17774;DHT22;9011;33.236;-97.118;2023-05-10T14:46:08;24.80;99.90
17774;DHT22;9011;33.236;-97.118;2023-05-10T14:48:37;24.80;99.90
17774;DHT22;9011;33.236;-97.118;2023-05-10T14:51:07;24.90;99.90
17774;DHT22;9011;33.236;-97.118;2023-05-10T14:53:35;24.80;99.90
17774;DHT22;9011;33.236;-97.118;2023-05-10T14:56:03;24.90;99.90
17774;DHT22;9011;33.236;-97.118;2023-05-10T14:58:32;24.90;99.90
17774;DHT22;9011;33.236;-97.118;2023-05-10T15:01:02;24.90;99.90
17774;DHT22;9011;33.236;-97.118;2023-05-10T15:03:30;24.90;99.90
17774;DHT22;9011;33.236;-97.118;2023-05-10T15:05:59;24.50;99.90
17774;DHT22;9011;33.236;-97.118;2023-05-10T15:08:29;24.70;99.90
17774;DHT22;9011;33.236;-97.118;2023-05-10T15:10:57;24.60;99.90
17774;DHT22;9011;33.236;-97.118;2023-05-10T15:13:25;24.70;99.90
17774;DHT22;9011;33.236;-97.118;2023-05-10T15:15:54;24.50;99.90
17774;DHT22;9011;33.236;-97.118;2023-05-10T15:18:22;24.40;99.90
17774;DHT22;9011;33.236;-97.118;2023-05-10T15:20:51;24.40;99.90
17774;DHT22;9011;33.236;-97.118;2023-05-10T15:23:19;24.50;99.90
17774;DHT22;9011;33.236;-97.118;2023-05-10T15:25:49;24.50;99.90
17774;DHT22;9011;33.236;-97.118;2023-05-10T15:28:21;24.50;99.90
17774;DHT22;9011;33.236;-97.118;2023-05-10T15:30:50;24.70;99.90
17774;DHT22;9011;33.236;-97.118;2023-05-10T15:33:18;24.50;99.90
17774;DHT22;9011;33.236;-97.118;2023-05-10T15:35:46;24.60;99.90
17774;DHT22;9011;33.236;-97.118;2023-05-10T15:38:15;24.60;99.90
17774;DHT22;9011;33.236;-97.118;2023-05-10T15:40:43;24.50;99.90
17774;DHT22;9011;33.236;-97.118;2023-05-10T15:43:13;24.40;99.90
17774;DHT22;9011;33.236;-97.118;2023-05-10T15:45:41;24.20;99.90
17774;DHT22;9011;33.236;-97.118;2023-05-10T15:48:10;24.30;99.90
17774;DHT22;9011;33.236;-97.118;2023-05-10T15:50:38;24.50;99.90
17774;DHT22;9011;33.236;-97.118;2023-05-10T15:53:07;24.50;99.90
17774;DHT22;9011;33.236;-97.118;2023-05-10T15:55:35;24.50;99.90
17774;DHT22;9011;33.236;-97.118;2023-05-10T15:58:03;24.40;99.90
17774;DHT22;9011;33.236;-97.118;2023-05-10T16:00:33;24.20;99.90
17774;DHT22;9011;33.236;-97.118;2023-05-10T16:03:02;24.20;99.90
17774;DHT22;9011;33.236;-97.118;2023-05-10T16:05:30;24.20;99.90
17774;DHT22;9011;33.236;-97.118;2023-05-10T16:07:59;24.20;99.90
17774;DHT22;9011;33.236;-97.118;2023-05-10T16:10:27;24.20;99.90
17774;DHT22;9011;33.236;-97.118;2023-05-10T16:13:00;24.30;99.90
17774;DHT22;9011;33.236;-97.118;2023-05-10T16:15:32;24.40;99.90
17774;DHT22;9011;33.236;-97.118;2023-05-10T16:18:00;24.40;99.90
17774;DHT22;9011;33.236;-97.118;2023-05-10T16:20:29;24.40;99.90
17774;DHT22;9011;33.236;-97.118;2023-05-10T16:22:58;24.30;99.90
17774;DHT22;9011;33.236;-97.118;2023-05-10T16:25:30;24.30;99.90
17774;DHT22;9011;33.236;-97.118;2023-05-10T16:27:59;24.50;99.90
17774;DHT22;9011;33.236;-97.118;2023-05-10T16:30:27;24.50;99.90
17774;DHT22;9011;33.236;-97.118;2023-05-10T16:32:58;24.50;99.90
17774;DHT22;9011;33.236;-97.118;2023-05-10T16:35:26;24.50;99.90
17774;DHT22;9011;33.236;-97.118;2023-05-10T16:37:55;24.40;99.90
17774;DHT22;9011;33.236;-97.118;2023-05-10T16:40:24;24.50;99.90
17774;DHT22;9011;33.236;-97.118;2023-05-10T16:42:54;24.70;99.90
17774;DHT22;9011;33.236;-97.118;2023-05-10T16:45:23;24.70;99.90
17774;DHT22;9011;33.236;-97.118;2023-05-10T16:47:52;24.70;99.90
17774;DHT22;9011;33.236;-97.118;2023-05-10T16:50:22;24.80;99.90
17774;DHT22;9011;33.236;-97.118;2023-05-10T16:52:51;24.90;99.90
17774;DHT22;9011;33.236;-97.118;2023-05-10T16:55:19;25.00;99.90
17774;DHT22;9011;33.236;-97.118;2023-05-10T16:57:48;25.10;99.90
17774;DHT22;9011;33.236;-97.118;2023-05-10T17:00:17;25.30;99.90
17774;DHT22;9011;33.236;-97.118;2023-05-10T17:02:46;25.60;99.90
17774;DHT22;9011;33.236;-97.118;2023-05-10T17:05:14;25.70;99.90
17774;DHT22;9011;33.236;-97.118;2023-05-10T17:07:44;25.50;99.90
17774;DHT22;9011;33.236;-97.118;2023-05-10T17:10:13;25.70;99.90
17774;DHT22;9011;33.236;-97.118;2023-05-10T17:12:41;25.90;99.90
17774;DHT22;9011;33.236;-97.118;2023-05-10T17:15:10;26.10;99.90
17774;DHT22;9011;33.236;-97.118;2023-05-10T17:17:38;26.20;99.90
17774;DHT22;9011;33.236;-97.118;2023-05-10T17:20:08;26.40;99.90
17774;DHT22;9011;33.236;-97.118;2023-05-10T17:22:36;26.40;99.90
17774;DHT22;9011;33.236;-97.118;2023-05-10T17:25:07;26.30;99.90
17774;DHT22;9011;33.236;-97.118;2023-05-10T17:27:36;26.30;99.90
17774;DHT22;9011;33.236;-97.118;2023-05-10T17:30:05;26.00;99.90
17774;DHT22;9011;33.236;-97.118;2023-05-10T17:32:34;26.00;99.90
17774;DHT22;9011;33.236;-97.118;2023-05-10T17:35:03;25.90;99.90
17774;DHT22;9011;33.236;-97.118;2023-05-10T17:37:31;26.00;99.90
17774;DHT22;9011;33.236;-97.118;2023-05-10T17:40:00;25.90;99.90
17774;DHT22;9011;33.236;-97.118;2023-05-10T17:42:32;26.10;99.90
17774;DHT22;9011;33.236;-97.118;2023-05-10T17:45:01;26.20;99.90
17774;DHT22;9011;33.236;-97.118;2023-05-10T17:47:29;26.10;99.90
17774;DHT22;9011;33.236;-97.118;2023-05-10T17:49:58;26.10;99.90
17774;DHT22;9011;33.236;-97.118;2023-05-10T17:52:27;25.90;99.90
17774;DHT22;9011;33.236;-97.118;2023-05-10T17:54:56;26.00;99.90
17774;DHT22;9011;33.236;-97.118;2023-05-10T17:57:24;26.00;99.90
17774;DHT22;9011;33.236;-97.118;2023-05-10T17:59:55;26.00;99.90
17774;DHT22;9011;33.236;-97.118;2023-05-10T18:02:23;26.10;99.90
17774;DHT22;9011;33.236;-97.118;2023-05-10T18:04:52;25.90;99.90
17774;DHT22;9011;33.236;-97.118;2023-05-10T18:07:20;26.10;99.90
17774;DHT22;9011;33.236;-97.118;2023-05-10T18:09:49;26.20;99.90
17774;DHT22;9011;33.236;-97.118;2023-05-10T18:12:17;26.30;99.90
17774;DHT22;9011;33.236;-97.118;2023-05-10T18:14:46;25.90;99.90
17774;DHT22;9011;33.236;-97.118;2023-05-10T18:17:16;25.90;99.90
17774;DHT22;9011;33.236;-97.118;2023-05-10T18:19:44;25.90;99.90
17774;DHT22;9011;33.236;-97.118;2023-05-10T18:22:13;25.90;99.90
17774;DHT22;9011;33.236;-97.118;2023-05-10T18:24:42;26.00;99.90
17774;DHT22;9011;33.236;-97.118;2023-05-10T18:27:10;26.00;99.90
17774;DHT22;9011;33.236;-97.118;2023-05-10T18:29:38;25.90;99.90
17774;DHT22;9011;33.236;-97.118;2023-05-10T18:32:07;26.10;99.90
17774;DHT22;9011;33.236;-97.118;2023-05-10T18:34:37;25.90;99.90
17774;DHT22;9011;33.236;-97.118;2023-05-10T18:37:06;25.80;99.90
17774;DHT22;9011;33.236;-97.118;2023-05-10T18:39:35;25.90;99.90
17774;DHT22;9011;33.236;-97.118;2023-05-10T18:42:04;25.80;99.90
17774;DHT22;9011;33.236;-97.118;2023-05-10T18:44:33;25.70;99.90
17774;DHT22;9011;33.236;-97.118;2023-05-10T18:47:01;25.50;99.90
17774;DHT22;9011;33.236;-97.118;2023-05-10T18:49:31;25.50;99.90
17774;DHT22;9011;33.236;-97.118;2023-05-10T18:52:01;25.40;99.90
17774;DHT22;9011;33.236;-97.118;2023-05-10T18:54:30;25.40;99.90
17774;DHT22;9011;33.236;-97.118;2023-05-10T18:56:58;25.20;99.90
17774;DHT22;9011;33.236;-97.118;2023-05-10T18:59:27;25.10;99.90
17774;DHT22;9011;33.236;-97.118;2023-05-10T19:01:55;25.10;99.90
17774;DHT22;9011;33.236;-97.118;2023-05-10T19:04:24;25.00;99.90
17774;DHT22;9011;33.236;-97.118;2023-05-10T19:06:52;24.80;99.90
17774;DHT22;9011;33.236;-97.118;2023-05-10T19:09:22;24.80;99.90
17774;DHT22;9011;33.236;-97.118;2023-05-10T19:11:51;24.60;99.90
17774;DHT22;9011;33.236;-97.118;2023-05-10T19:14:19;24.50;99.90
17774;DHT22;9011;33.236;-97.118;2023-05-10T19:16:48;24.40;99.90
17774;DHT22;9011;33.236;-97.118;2023-05-10T19:19:17;24.50;99.90
17774;DHT22;9011;33.236;-97.118;2023-05-10T19:21:45;24.50;99.90
17774;DHT22;9011;33.236;-97.118;2023-05-10T19:24:14;24.40;99.90
17774;DHT22;9011;33.236;-97.118;2023-05-10T19:26:45;24.30;99.90
17774;DHT22;9011;33.236;-97.118;2023-05-10T19:29:13;24.30;99.90
17774;DHT22;9011;33.236;-97.118;2023-05-10T19:31:41;24.30;99.90
17774;DHT22;9011;33.236;-97.118;2023-05-10T19:34:10;24.30;99.90
17774;DHT22;9011;33.236;-97.118;2023-05-10T19:36:39;24.30;99.90
17774;DHT22;9011;33.236;-97.118;2023-05-10T19:39:07;24.30;99.90
17774;DHT22;9011;33.236;-97.118;2023-05-10T19:41:35;24.30;99.90
17774;DHT22;9011;33.236;-97.118;2023-05-10T19:44:06;24.30;99.90
17774;DHT22;9011;33.236;-97.118;2023-05-10T19:46:34;24.40;99.90
17774;DHT22;9011;33.236;-97.118;2023-05-10T19:49:02;24.50;99.90
17774;DHT22;9011;33.236;-97.118;2023-05-10T19:51:31;24.50;99.90
17774;DHT22;9011;33.236;-97.118;2023-05-10T19:53:59;24.20;99.90
17774;DHT22;9011;33.236;-97.118;2023-05-10T19:56:28;24.30;99.90
17774;DHT22;9011;33.236;-97.118;2023-05-10T19:58:56;24.40;99.90